sensor_id;sensor_type;location;lat;lon;timestamp;pressure;altitude;pressure_sealevel;temperature;humidity
7990;BME280;4040;42.848;23.034;2023-07-31T00:00:54;94620.00;;;19.33;100.00
7990;BME280;4040;42.848;23.034;2023-07-31T00:03:21;94606.53;;;19.21;100.00
7990;BME280;4040;42.848;23.034;2023-07-31T00:09:10;94611.44;;;19.49;100.00
7990;BME280;4040;42.848;23.034;2023-07-31T00:14:58;94606.94;;;19.70;100.00
7990;BME280;4040;42.848;23.034;2023-07-31T00:20:49;94595.72;;;19.68;100.00
7990;BME280;4040;42.848;23.034;2023-07-31T00:26:37;94574.44;;;19.72;100.00
7990;BME280;4040;42.848;23.034;2023-07-31T00:32:26;94585.09;;;19.93;100.00
7990;BME280;4040;42.848;23.034;2023-07-31T00:38:16;94582.13;;;20.06;100.00
7990;BME280;4040;42.848;23.034;2023-07-31T00:44:05;94576.28;;;20.13;100.00
7990;BME280;4040;42.848;23.034;2023-07-31T00:46:32;94573.91;;;20.06;100.00
7990;BME280;4040;42.848;23.034;2023-07-31T00:52:21;94584.22;;;20.11;100.00
7990;BME280;4040;42.848;23.034;2023-07-31T00:58:11;94582.16;;;20.20;100.00
7990;BME280;4040;42.848;23.034;2023-07-31T01:07:50;94554.50;;;20.04;100.00
7990;BME280;4040;42.848;23.034;2023-07-31T01:13:42;94568.19;;;20.18;100.00
7990;BME280;4040;42.848;23.034;2023-07-31T01:19:31;94564.41;;;20.16;100.00
7990;BME280;4040;42.848;23.034;2023-07-31T01:25:34;94556.63;;;20.00;100.00
7990;BME280;4040;42.848;23.034;2023-07-31T01:31:29;94550.31;;;20.32;100.00
7990;BME280;4040;42.848;23.034;2023-07-31T01:37:18;94561.06;;;20.35;100.00
7990;BME280;4040;42.848;23.034;2023-07-31T01:43:07;94560.50;;;20.31;100.00
7990;BME280;4040;42.848;23.034;2023-07-31T01:48:57;94500.44;;;19.99;100.00
7990;BME280;4040;42.848;23.034;2023-07-31T01:54:46;94556.94;;;20.40;100.00
7990;BME280;4040;42.848;23.034;2023-07-31T02:00:35;94565.31;;;20.36;100.00
7990;BME280;4040;42.848;23.034;2023-07-31T02:10:27;94554.09;;;20.34;100.00
7990;BME280;4040;42.848;23.034;2023-07-31T02:16:15;94553.50;;;20.30;100.00
7990;BME280;4040;42.848;23.034;2023-07-31T02:22:04;94554.47;;;20.27;100.00
7990;BME280;4040;42.848;23.034;2023-07-31T02:24:32;94555.78;;;20.32;100.00
7990;BME280;4040;42.848;23.034;2023-07-31T02:30:22;94557.13;;;20.36;100.00
7990;BME280;4040;42.848;23.034;2023-07-31T02:36:10;94558.88;;;20.01;100.00
7990;BME280;4040;42.848;23.034;2023-07-31T02:41:59;94559.66;;;20.02;100.00
7990;BME280;4040;42.848;23.034;2023-07-31T02:47:50;94575.94;;;19.73;100.00
7990;BME280;4040;42.848;23.034;2023-07-31T02:53:39;94570.19;;;19.71;100.00
7990;BME280;4040;42.848;23.034;2023-07-31T02:59:28;94569.72;;;19.72;100.00
7990;BME280;4040;42.848;23.034;2023-07-31T03:05:18;94578.63;;;19.82;100.00
7990;BME280;4040;42.848;23.034;2023-07-31T03:11:07;94572.81;;;19.89;100.00
7990;BME280;4040;42.848;23.034;2023-07-31T03:16:56;94571.00;;;19.86;100.00
7990;BME280;4040;42.848;23.034;2023-07-31T03:22:46;94586.22;;;20.01;100.00
7990;BME280;4040;42.848;23.034;2023-07-31T03:28:34;94596.69;;;20.03;100.00
7990;BME280;4040;42.848;23.034;2023-07-31T03:34:23;94591.88;;;19.98;100.00
7990;BME280;4040;42.848;23.034;2023-07-31T03:40:13;94587.50;;;19.91;100.00
7990;BME280;4040;42.848;23.034;2023-07-31T03:46:02;94586.81;;;19.82;100.00
7990;BME280;4040;42.848;23.034;2023-07-31T03:51:51;94578.94;;;19.75;100.00
7990;BME280;4040;42.848;23.034;2023-07-31T03:57:41;94592.22;;;19.91;100.00
7990;BME280;4040;42.848;23.034;2023-07-31T04:03:30;94600.72;;;19.93;100.00
7990;BME280;4040;42.848;23.034;2023-07-31T04:05:57;94610.13;;;19.92;100.00
7990;BME280;4040;42.848;23.034;2023-07-31T04:11:46;94590.78;;;19.81;100.00
7990;BME280;4040;42.848;23.034;2023-07-31T04:17:36;94612.31;;;20.11;100.00
7990;BME280;4040;42.848;23.034;2023-07-31T04:23:25;94616.44;;;20.07;100.00
7990;BME280;4040;42.848;23.034;2023-07-31T04:29:14;94621.47;;;19.99;100.00
7990;BME280;4040;42.848;23.034;2023-07-31T04:35:05;94551.28;;;19.82;100.00
7990;BME280;4040;42.848;23.034;2023-07-31T04:40:54;94607.38;;;20.39;100.00
7990;BME280;4040;42.848;23.034;2023-07-31T04:46:43;94621.41;;;20.55;100.00
7990;BME280;4040;42.848;23.034;2023-07-31T04:49:11;94619.03;;;20.63;100.00
7990;BME280;4040;42.848;23.034;2023-07-31T04:51:39;94621.88;;;20.68;100.00
7990;BME280;4040;42.848;23.034;2023-07-31T04:57:28;94615.78;;;20.87;100.00
7990;BME280;4040;42.848;23.034;2023-07-31T05:03:17;94607.94;;;21.09;100.00
7990;BME280;4040;42.848;23.034;2023-07-31T05:13:28;94611.66;;;21.55;100.00
7990;BME280;4040;42.848;23.034;2023-07-31T05:19:17;94611.25;;;21.62;100.00
7990;BME280;4040;42.848;23.034;2023-07-31T05:25:06;94607.56;;;22.00;100.00
7990;BME280;4040;42.848;23.034;2023-07-31T05:31:00;94605.53;;;21.95;100.00
7990;BME280;4040;42.848;23.034;2023-07-31T05:36:49;94603.81;;;22.37;100.00
7990;BME280;4040;42.848;23.034;2023-07-31T05:42:38;94594.22;;;22.07;100.00
7990;BME280;4040;42.848;23.034;2023-07-31T05:48:28;94600.31;;;22.57;100.00
7990;BME280;4040;42.848;23.034;2023-07-31T05:54:17;94601.53;;;23.63;100.00
7990;BME280;4040;42.848;23.034;2023-07-31T06:00:07;94619.66;;;22.93;100.00
7990;BME280;4040;42.848;23.034;2023-07-31T06:05:57;94618.47;;;22.74;100.00
7990;BME280;4040;42.848;23.034;2023-07-31T06:16:08;94634.16;;;23.19;100.00
7990;BME280;4040;42.848;23.034;2023-07-31T06:21:59;94623.38;;;26.37;100.00
7990;BME280;4040;42.848;23.034;2023-07-31T06:27:47;94625.63;;;27.71;92.54
7990;BME280;4040;42.848;23.034;2023-07-31T06:33:36;94618.66;;;26.27;100.00
7990;BME280;4040;42.848;23.034;2023-07-31T06:39:27;94610.16;;;27.27;89.21
7990;BME280;4040;42.848;23.034;2023-07-31T06:45:15;94615.59;;;27.73;86.72
7990;BME280;4040;42.848;23.034;2023-07-31T06:47:42;94622.88;;;28.24;82.40
7990;BME280;4040;42.848;23.034;2023-07-31T06:53:31;94604.41;;;28.56;76.27
7990;BME280;4040;42.848;23.034;2023-07-31T06:59:21;94609.59;;;29.02;71.20
7990;BME280;4040;42.848;23.034;2023-07-31T07:05:10;94553.31;;;26.45;82.42
7990;BME280;4040;42.848;23.034;2023-07-31T07:10:59;94550.38;;;26.78;82.23
7990;BME280;4040;42.848;23.034;2023-07-31T07:16:52;94608.50;;;29.11;71.45
7990;BME280;4040;42.848;23.034;2023-07-31T07:22:40;94583.53;;;30.31;61.33
7990;BME280;4040;42.848;23.034;2023-07-31T07:28:30;94616.88;;;30.44;62.17
7990;BME280;4040;42.848;23.034;2023-07-31T07:34:22;94615.81;;;30.34;60.30
7990;BME280;4040;42.848;23.034;2023-07-31T07:40:11;94590.69;;;30.39;58.57
7990;BME280;4040;42.848;23.034;2023-07-31T07:46:00;94616.56;;;32.15;53.44
7990;BME280;4040;42.848;23.034;2023-07-31T07:51:50;94622.16;;;32.70;51.34
7990;BME280;4040;42.848;23.034;2023-07-31T07:57:38;94616.59;;;32.42;50.15
7990;BME280;4040;42.848;23.034;2023-07-31T08:03:27;94621.78;;;33.02;47.88
7990;BME280;4040;42.848;23.034;2023-07-31T08:09:17;94635.66;;;32.59;47.47
7990;BME280;4040;42.848;23.034;2023-07-31T08:11:44;94598.34;;;32.69;48.13
7990;BME280;4040;42.848;23.034;2023-07-31T08:17:33;94626.16;;;32.27;50.07
7990;BME280;4040;42.848;23.034;2023-07-31T08:23:22;94629.31;;;32.58;47.34
7990;BME280;4040;42.848;23.034;2023-07-31T08:29:12;94633.53;;;33.66;46.83
7990;BME280;4040;42.848;23.034;2023-07-31T08:35:00;94644.59;;;34.61;44.20
7990;BME280;4040;42.848;23.034;2023-07-31T08:40:49;94624.44;;;35.25;42.81
7990;BME280;4040;42.848;23.034;2023-07-31T08:46:39;94616.97;;;34.58;43.89
7990;BME280;4040;42.848;23.034;2023-07-31T08:52:29;94601.50;;;33.59;43.84
7990;BME280;4040;42.848;23.034;2023-07-31T08:58:18;94607.75;;;32.51;46.96
7990;BME280;4040;42.848;23.034;2023-07-31T09:04:09;94612.31;;;33.70;43.80
7990;BME280;4040;42.848;23.034;2023-07-31T09:09:59;94607.13;;;34.19;42.37
7990;BME280;4040;42.848;23.034;2023-07-31T09:15:47;94601.59;;;34.96;40.22
7990;BME280;4040;42.848;23.034;2023-07-31T09:21:47;94582.53;;;33.88;42.27
7990;BME280;4040;42.848;23.034;2023-07-31T09:27:46;94602.97;;;34.80;41.13
7990;BME280;4040;42.848;23.034;2023-07-31T09:33:54;94592.81;;;35.46;40.54
7990;BME280;4040;42.848;23.034;2023-07-31T09:39:48;94599.72;;;34.22;42.56
7990;BME280;4040;42.848;23.034;2023-07-31T09:45:42;94609.69;;;34.62;43.24
7990;BME280;4040;42.848;23.034;2023-07-31T09:51:32;94602.81;;;35.25;42.83
7990;BME280;4040;42.848;23.034;2023-07-31T09:57:26;94594.41;;;33.58;44.40
7990;BME280;4040;42.848;23.034;2023-07-31T10:06:40;94586.56;;;33.49;41.47
7990;BME280;4040;42.848;23.034;2023-07-31T10:16:13;94570.59;;;35.02;38.57
7990;BME280;4040;42.848;23.034;2023-07-31T10:22:04;94567.59;;;33.55;39.52
7990;BME280;4040;42.848;23.034;2023-07-31T10:27:54;94572.25;;;32.24;42.05
7990;BME280;4040;42.848;23.034;2023-07-31T10:33:44;94559.94;;;32.83;42.11
7990;BME280;4040;42.848;23.034;2023-07-31T10:39:37;94557.53;;;31.96;44.42
7990;BME280;4040;42.848;23.034;2023-07-31T10:45:33;94563.25;;;32.74;45.32
7990;BME280;4040;42.848;23.034;2023-07-31T10:51:32;94566.06;;;33.24;42.73
7990;BME280;4040;42.848;23.034;2023-07-31T10:57:21;94571.00;;;31.64;44.22
7990;BME280;4040;42.848;23.034;2023-07-31T11:03:13;94553.69;;;30.70;46.60
7990;BME280;4040;42.848;23.034;2023-07-31T11:09:03;94561.66;;;30.87;48.92
7990;BME280;4040;42.848;23.034;2023-07-31T11:18:55;94570.16;;;29.59;51.00
7990;BME280;4040;42.848;23.034;2023-07-31T11:24:45;94567.25;;;29.20;53.43
7990;BME280;4040;42.848;23.034;2023-07-31T11:30:35;94568.59;;;28.77;50.30
7990;BME280;4040;42.848;23.034;2023-07-31T11:36:24;94563.97;;;29.03;50.87
7990;BME280;4040;42.848;23.034;2023-07-31T11:42:15;94535.63;;;29.10;50.38
7990;BME280;4040;42.848;23.034;2023-07-31T11:48:04;94554.22;;;29.91;50.94
7990;BME280;4040;42.848;23.034;2023-07-31T11:53:55;94539.66;;;29.72;51.62
7990;BME280;4040;42.848;23.034;2023-07-31T11:59:46;94533.44;;;29.53;50.82
7990;BME280;4040;42.848;23.034;2023-07-31T12:05:37;94516.34;;;29.49;53.85
7990;BME280;4040;42.848;23.034;2023-07-31T12:11:25;94523.91;;;29.17;52.94
7990;BME280;4040;42.848;23.034;2023-07-31T12:21:37;94524.56;;;28.92;51.04
7990;BME280;4040;42.848;23.034;2023-07-31T12:27:32;94535.50;;;29.03;49.71
7990;BME280;4040;42.848;23.034;2023-07-31T12:33:21;94528.00;;;28.79;49.26
7990;BME280;4040;42.848;23.034;2023-07-31T12:39:12;94535.56;;;28.60;48.99
7990;BME280;4040;42.848;23.034;2023-07-31T12:45:01;94511.22;;;28.72;50.40
7990;BME280;4040;42.848;23.034;2023-07-31T12:50:50;94516.72;;;28.59;51.45
7990;BME280;4040;42.848;23.034;2023-07-31T12:56:41;94499.84;;;28.75;51.71
7990;BME280;4040;42.848;23.034;2023-07-31T13:02:29;94499.59;;;28.73;53.18
7990;BME280;4040;42.848;23.034;2023-07-31T13:08:18;94440.94;;;28.38;49.00
7990;BME280;4040;42.848;23.034;2023-07-31T13:14:08;94468.97;;;28.66;49.65
7990;BME280;4040;42.848;23.034;2023-07-31T13:24:19;94484.25;;;28.17;52.06
7990;BME280;4040;42.848;23.034;2023-07-31T13:30:10;94510.25;;;28.08;53.28
7990;BME280;4040;42.848;23.034;2023-07-31T13:35:58;94457.00;;;27.54;52.75
7990;BME280;4040;42.848;23.034;2023-07-31T13:41:47;94488.53;;;27.46;53.70
7990;BME280;4040;42.848;23.034;2023-07-31T13:47:36;94501.16;;;27.65;55.41
7990;BME280;4040;42.848;23.034;2023-07-31T13:53:25;94500.03;;;27.79;56.27
7990;BME280;4040;42.848;23.034;2023-07-31T13:59:14;94504.13;;;27.97;57.30
7990;BME280;4040;42.848;23.034;2023-07-31T14:05:05;94498.84;;;27.45;57.69
7990;BME280;4040;42.848;23.034;2023-07-31T14:10:55;94483.75;;;27.46;58.19
7990;BME280;4040;42.848;23.034;2023-07-31T14:16:44;94492.16;;;27.35;58.80
7990;BME280;4040;42.848;23.034;2023-07-31T14:26:57;94490.09;;;27.41;60.55
7990;BME280;4040;42.848;23.034;2023-07-31T14:32:45;94493.88;;;27.09;62.17
7990;BME280;4040;42.848;23.034;2023-07-31T14:38:34;94501.94;;;26.72;64.86
7990;BME280;4040;42.848;23.034;2023-07-31T14:44:24;94506.88;;;26.84;63.72
7990;BME280;4040;42.848;23.034;2023-07-31T14:50:13;94498.56;;;26.84;65.41
7990;BME280;4040;42.848;23.034;2023-07-31T14:56:02;94498.75;;;26.97;64.23
7990;BME280;4040;42.848;23.034;2023-07-31T15:01:51;94500.31;;;26.52;64.16
7990;BME280;4040;42.848;23.034;2023-07-31T15:07:40;94499.34;;;26.44;64.45
7990;BME280;4040;42.848;23.034;2023-07-31T15:13:29;94493.28;;;26.46;66.48
7990;BME280;4040;42.848;23.034;2023-07-31T15:19:19;94509.19;;;26.35;66.59
7990;BME280;4040;42.848;23.034;2023-07-31T15:29:31;94504.28;;;26.06;66.50
7990;BME280;4040;42.848;23.034;2023-07-31T15:35:23;94505.31;;;25.92;66.93
7990;BME280;4040;42.848;23.034;2023-07-31T15:41:12;94498.38;;;25.58;67.15
7990;BME280;4040;42.848;23.034;2023-07-31T15:47:00;94493.63;;;25.64;68.84
7990;BME280;4040;42.848;23.034;2023-07-31T15:52:50;94494.41;;;25.48;65.77
7990;BME280;4040;42.848;23.034;2023-07-31T15:58:39;94509.44;;;25.47;66.13
7990;BME280;4040;42.848;23.034;2023-07-31T16:04:28;94507.41;;;25.64;62.43
7990;BME280;4040;42.848;23.034;2023-07-31T16:10:18;94517.63;;;25.80;61.96
7990;BME280;4040;42.848;23.034;2023-07-31T16:16:06;94477.06;;;25.64;60.52
7990;BME280;4040;42.848;23.034;2023-07-31T16:21:57;94519.16;;;25.75;62.92
7990;BME280;4040;42.848;23.034;2023-07-31T16:32:09;94514.94;;;25.58;63.47
7990;BME280;4040;42.848;23.034;2023-07-31T16:37:57;94497.44;;;25.28;64.65
7990;BME280;4040;42.848;23.034;2023-07-31T16:43:46;94521.50;;;25.33;64.88
7990;BME280;4040;42.848;23.034;2023-07-31T16:49:37;94534.25;;;25.08;69.39
7990;BME280;4040;42.848;23.034;2023-07-31T16:55:26;94527.50;;;24.93;68.71
7990;BME280;4040;42.848;23.034;2023-07-31T17:01:16;94534.72;;;24.63;71.11
7990;BME280;4040;42.848;23.034;2023-07-31T17:07:06;94527.88;;;24.42;73.01
7990;BME280;4040;42.848;23.034;2023-07-31T17:12:54;94522.78;;;24.13;74.64
7990;BME280;4040;42.848;23.034;2023-07-31T17:18:43;94507.38;;;23.79;72.20
7990;BME280;4040;42.848;23.034;2023-07-31T17:24:33;94541.88;;;23.80;73.83
7990;BME280;4040;42.848;23.034;2023-07-31T17:34:44;94558.44;;;23.49;79.25
7990;BME280;4040;42.848;23.034;2023-07-31T17:40:37;94559.56;;;23.32;83.19
7990;BME280;4040;42.848;23.034;2023-07-31T17:46:26;94570.75;;;22.97;90.88
7990;BME280;4040;42.848;23.034;2023-07-31T17:52:15;94564.03;;;22.73;94.86
7990;BME280;4040;42.848;23.034;2023-07-31T17:58:05;94583.19;;;22.67;99.67
7990;BME280;4040;42.848;23.034;2023-07-31T18:03:53;94568.63;;;22.36;100.00
7990;BME280;4040;42.848;23.034;2023-07-31T18:09:43;94584.75;;;22.28;100.00
7990;BME280;4040;42.848;23.034;2023-07-31T18:15:33;94588.16;;;22.23;100.00
7990;BME280;4040;42.848;23.034;2023-07-31T18:21:21;94564.50;;;21.86;100.00
7990;BME280;4040;42.848;23.034;2023-07-31T18:27:10;94595.59;;;21.97;100.00
7990;BME280;4040;42.848;23.034;2023-07-31T18:37:24;94615.22;;;21.76;100.00
7990;BME280;4040;42.848;23.034;2023-07-31T18:43:12;94593.59;;;21.00;100.00
7990;BME280;4040;42.848;23.034;2023-07-31T18:49:01;94618.84;;;20.52;100.00
7990;BME280;4040;42.848;23.034;2023-07-31T18:54:51;94628.75;;;20.26;100.00
7990;BME280;4040;42.848;23.034;2023-07-31T19:00:40;94628.31;;;20.04;100.00
7990;BME280;4040;42.848;23.034;2023-07-31T19:06:29;94638.75;;;19.82;100.00
7990;BME280;4040;42.848;23.034;2023-07-31T19:12:20;94640.69;;;19.58;100.00
7990;BME280;4040;42.848;23.034;2023-07-31T19:18:08;94618.00;;;19.34;100.00
7990;BME280;4040;42.848;23.034;2023-07-31T19:23:57;94608.97;;;19.19;100.00
7990;BME280;4040;42.848;23.034;2023-07-31T19:29:47;94642.59;;;19.34;100.00
7990;BME280;4040;42.848;23.034;2023-07-31T19:39:58;94648.25;;;19.30;100.00
7990;BME280;4040;42.848;23.034;2023-07-31T19:45:48;94652.34;;;19.26;100.00
7990;BME280;4040;42.848;23.034;2023-07-31T19:51:37;94631.19;;;18.94;100.00
7990;BME280;4040;42.848;23.034;2023-07-31T19:57:26;94669.06;;;19.01;100.00
7990;BME280;4040;42.848;23.034;2023-07-31T20:03:16;94665.16;;;18.84;100.00
7990;BME280;4040;42.848;23.034;2023-07-31T20:09:05;94668.50;;;18.70;100.00
7990;BME280;4040;42.848;23.034;2023-07-31T20:14:54;94660.00;;;18.59;100.00
7990;BME280;4040;42.848;23.034;2023-07-31T20:20:45;94662.75;;;18.68;100.00
7990;BME280;4040;42.848;23.034;2023-07-31T20:26:33;94658.50;;;18.67;100.00
7990;BME280;4040;42.848;23.034;2023-07-31T20:32:22;94648.50;;;18.37;100.00
7990;BME280;4040;42.848;23.034;2023-07-31T20:42:34;94657.25;;;18.14;100.00
7990;BME280;4040;42.848;23.034;2023-07-31T20:48:23;94675.78;;;18.37;100.00
7990;BME280;4040;42.848;23.034;2023-07-31T20:54:12;94678.16;;;18.26;100.00
7990;BME280;4040;42.848;23.034;2023-07-31T21:00:03;94686.97;;;18.30;100.00
7990;BME280;4040;42.848;23.034;2023-07-31T21:05:53;94687.31;;;18.41;100.00
7990;BME280;4040;42.848;23.034;2023-07-31T21:11:44;94678.81;;;18.39;100.00
7990;BME280;4040;42.848;23.034;2023-07-31T21:17:34;94676.41;;;18.41;100.00
7990;BME280;4040;42.848;23.034;2023-07-31T21:23:23;94671.50;;;18.27;100.00
7990;BME280;4040;42.848;23.034;2023-07-31T21:29:12;94652.84;;;17.98;100.00
7990;BME280;4040;42.848;23.034;2023-07-31T21:35:03;94675.09;;;17.97;100.00
7990;BME280;4040;42.848;23.034;2023-07-31T21:45:14;94674.13;;;17.73;100.00
7990;BME280;4040;42.848;23.034;2023-07-31T21:51:04;94682.16;;;17.16;100.00
7990;BME280;4040;42.848;23.034;2023-07-31T21:56:54;94691.56;;;16.93;100.00
7990;BME280;4040;42.848;23.034;2023-07-31T22:08:28;94703.81;;;16.98;100.00
7990;BME280;4040;42.848;23.034;2023-07-31T22:14:17;94689.53;;;17.06;100.00
7990;BME280;4040;42.848;23.034;2023-07-31T22:20:07;94686.47;;;17.04;100.00
7990;BME280;4040;42.848;23.034;2023-07-31T22:25:57;94681.25;;;16.88;100.00
7990;BME280;4040;42.848;23.034;2023-07-31T22:31:46;94685.00;;;16.82;100.00
7990;BME280;4040;42.848;23.034;2023-07-31T22:37:35;94683.34;;;16.84;100.00
7990;BME280;4040;42.848;23.034;2023-07-31T22:43:25;94681.06;;;16.83;100.00
7990;BME280;4040;42.848;23.034;2023-07-31T22:49:13;94677.53;;;16.73;100.00
7990;BME280;4040;42.848;23.034;2023-07-31T22:55:02;94670.72;;;16.69;100.00
7990;BME280;4040;42.848;23.034;2023-07-31T23:01:00;94673.34;;;16.81;100.00
7990;BME280;4040;42.848;23.034;2023-07-31T23:11:11;94661.63;;;16.93;100.00
7990;BME280;4040;42.848;23.034;2023-07-31T23:17:01;94656.53;;;16.95;100.00
7990;BME280;4040;42.848;23.034;2023-07-31T23:22:50;94649.53;;;16.94;100.00
7990;BME280;4040;42.848;23.034;2023-07-31T23:28:38;94639.13;;;16.93;100.00
7990;BME280;4040;42.848;23.034;2023-07-31T23:34:28;94635.03;;;16.88;100.00
7990;BME280;4040;42.848;23.034;2023-07-31T23:40:17;94621.41;;;16.88;100.00
7990;BME280;4040;42.848;23.034;2023-07-31T23:46:05;94620.34;;;16.86;100.00
7990;BME280;4040;42.848;23.034;2023-07-31T23:51:56;94617.75;;;16.82;100.00
7990;BME280;4040;42.848;23.034;2023-07-31T23:57:45;94612.13;;;16.77;100.00
